Edinburg, North Dakota
Current Conditions -  °F | °C
As of 10:35 PM on Wednesday 22 Oct 2014 (Local Time) from K2C8 Reporting Station
Scattered Clouds Scattered Clouds  
Wind Chill: 50°   Ceiling: Unl
Heat Index: 50°   Visibility: 10mi
Dew Point: 48°   Wind: 8mph
Humidity: 94%   Direction: 200°SSW
Pressure: 29.8"   Gusts: NA
Location:  48.5°N, 97.86°W
Report Text: K2C8 230335Z AUTO 20007KT 10SM SCT060 10/09 A2980 RMK AO2
Loading
Personal Weather Stations






























Interactive Weather Map
Tropical Storm Tracking
New forecast layout! Learn more

10-Day Weather Forecast

Advertisements
Track Severe Weather on mobile